メインページ
METAR-TAF:

METAR-TAF

空港 :

ワルシャワ, ポーランド

ワルシャワ・ショパン空港

緯度: 52-10N, 経度: 020-58E, 海抜: 106m

現時点の気象観測

当レポートは34分前の23:00(UTC)に作成
西の風 7kt
気温 2°C
湿度 93%
気圧 1015 hPa
視程10km以上
高度800ftの雲はほとんどない
高度4300ftの雲は散在している, 積乱雲.
弱いにわか雨

METAR: EPWA 232300Z 26007KT 9999 -SHRA FEW008 SCT043CB 02/01 Q1015 TEMPO SHRA

時間: 01:34 (23:34 UTC)

予報

当レポートは6時間4分前の17:30(UTC)に作成
予報は23日の 18時(UTC)から 24日の 18時(UTC)まで有効
西の風 10kt
視程10km以上
1,500メートル以下は雲なし、積乱雲なし
23日の 18時(UTC)から 23日の 23時(UTC)まで一時的に
高度2000ftの千切れ雲あり, 積乱雲.
弱いにわか雨
確率 40% :
24日の 01時(UTC)から 24日の 07時(UTC)まで一時的に
高度700ftの千切れ雲あり

TAF: EPWA 231730Z 2318/2418 27010KT CAVOK TEMPO 2318/2323 -SHRA BKN020CB PROB40 TEMPO 2401/2407 BKN007

4,000以上の空港の気象観測と天気予報(METAR報とTAF報)

利用可能な観測所は地図上に黄色い丸と赤い丸で示す。

丸の上にカーソルを重ねると観測所名を参照できる。

次にクリックすると気象観測と天気予報を参照できる。

マップの切り替え:黒色「×」印の緑ボタンをクリックして拡大、「-」印の緑ボタンをクリックして縮小、緑色の三角印をクリックして隣りの地図に切り替え


METAR-TAF: